createdAt,value
2018-09-20T00:00:30.976Z,55.71
2018-09-20T00:02:59.364Z,55.70
2018-09-20T00:05:27.813Z,56.74
2018-09-20T00:07:56.176Z,57.32
2018-09-20T00:10:24.540Z,56.98
2018-09-20T00:12:52.892Z,56.08
2018-09-20T00:15:22.099Z,56.49
2018-09-20T00:17:50.495Z,57.94
2018-09-20T00:20:18.854Z,58.73
2018-09-20T00:22:47.218Z,57.63
2018-09-20T00:25:15.588Z,58.17
2018-09-20T00:27:43.951Z,57.45
2018-09-20T00:30:12.336Z,59.43
2018-09-20T00:32:40.683Z,59.15
2018-09-20T00:35:09.104Z,59.20
2018-09-20T00:37:37.491Z,57.72
2018-09-20T00:40:06.044Z,58.57
2018-09-20T00:42:34.439Z,57.35
2018-09-20T00:45:02.842Z,56.47
2018-09-20T00:47:31.899Z,56.96
2018-09-20T00:50:00.690Z,56.70
2018-09-20T00:52:29.430Z,57.50
2018-09-20T00:54:57.857Z,58.49
2018-09-20T00:57:26.195Z,58.30
2018-09-20T00:59:54.695Z,58.51
2018-09-20T01:02:23.132Z,58.18
2018-09-20T01:04:51.496Z,57.82
2018-09-20T01:07:19.907Z,57.64
2018-09-20T01:09:48.346Z,57.54
2018-09-20T01:12:16.820Z,58.13
2018-09-20T01:14:45.124Z,59.66
2018-09-20T01:17:13.681Z,59.60
2018-09-20T01:19:42.075Z,58.97
2018-09-20T01:22:10.799Z,57.97
2018-09-20T01:24:39.341Z,58.96
2018-09-20T01:27:08.342Z,60.81
2018-09-20T01:29:37.340Z,58.08
2018-09-20T01:32:06.236Z,59.48
2018-09-20T01:34:34.932Z,57.77
2018-09-20T01:37:04.266Z,59.25
2018-09-20T01:39:32.694Z,60.22
2018-09-20T01:42:01.157Z,59.10
2018-09-20T01:44:29.560Z,59.90
2018-09-20T01:46:58.003Z,61.24
2018-09-20T01:49:26.420Z,59.19
2018-09-20T01:51:55.122Z,59.45
2018-09-20T01:54:23.544Z,60.44
2018-09-20T01:56:52.066Z,61.80
2018-09-20T01:59:20.548Z,61.65
2018-09-20T02:01:48.960Z,61.09
2018-09-20T02:04:17.464Z,60.98
2018-09-20T02:06:46.164Z,61.74
2018-09-20T02:09:14.669Z,62.50
2018-09-20T02:11:43.072Z,60.76
2018-09-20T02:14:11.617Z,60.02
2018-09-20T02:16:40.007Z,60.44
2018-09-20T02:19:08.564Z,60.88
2018-09-20T02:21:36.971Z,60.21
2018-09-20T02:24:05.369Z,59.76
2018-09-20T02:26:33.842Z,62.12
2018-09-20T02:29:02.283Z,60.86
2018-09-20T02:31:30.761Z,60.91
2018-09-20T02:33:59.276Z,62.83
2018-09-20T02:36:27.695Z,61.55
2018-09-20T02:38:56.221Z,61.19
2018-09-20T02:41:24.724Z,61.86
2018-09-20T02:43:53.267Z,62.29
2018-09-20T02:46:21.683Z,61.49
2018-09-20T02:48:50.077Z,61.41
2018-09-20T02:51:18.477Z,61.04
2018-09-20T02:53:46.920Z,64.29
2018-09-20T02:56:15.373Z,61.73
2018-09-20T02:58:43.755Z,61.64
2018-09-20T03:01:12.226Z,61.21
2018-09-20T03:03:40.709Z,61.70
2018-09-20T03:06:09.135Z,60.37
2018-09-20T03:08:37.463Z,61.77
2018-09-20T03:11:06.037Z,61.39
2018-09-20T03:13:34.475Z,63.19
2018-09-20T03:16:02.747Z,63.37
2018-09-20T03:18:31.261Z,63.31
2018-09-20T03:20:59.659Z,62.43
2018-09-20T03:23:27.965Z,62.28
2018-09-20T03:25:56.310Z,62.44
2018-09-20T03:28:24.692Z,63.66
2018-09-20T03:30:53.222Z,62.25
2018-09-20T03:33:21.386Z,64.51
2018-09-20T03:35:49.856Z,61.83
2018-09-20T03:38:18.202Z,61.34
2018-09-20T03:40:46.609Z,62.67
2018-09-20T03:43:14.974Z,63.53
2018-09-20T03:45:43.354Z,64.82
2018-09-20T03:48:11.694Z,62.44
2018-09-20T03:50:40.167Z,64.72
2018-09-20T03:53:08.536Z,64.49
2018-09-20T03:55:36.981Z,63.15
2018-09-20T03:58:05.413Z,64.10
2018-09-20T04:00:33.855Z,63.19
2018-09-20T04:03:02.336Z,64.04
2018-09-20T04:05:30.748Z,62.04
2018-09-20T04:07:59.199Z,64.16
2018-09-20T04:10:27.732Z,62.56
2018-09-20T04:12:56.127Z,64.00
2018-09-20T04:15:24.599Z,62.81
2018-09-20T04:17:52.978Z,63.88
2018-09-20T04:20:21.428Z,63.64
2018-09-20T04:23:19.138Z,64.79
2018-09-20T04:25:47.482Z,64.61
2018-09-20T04:28:15.781Z,62.97
2018-09-20T04:30:44.091Z,62.19
2018-09-20T04:33:12.450Z,63.70
2018-09-20T04:35:40.807Z,64.00
2018-09-20T04:38:10.247Z,63.32
2018-09-20T04:40:38.580Z,66.21
2018-09-20T04:43:07.031Z,65.77
2018-09-20T04:45:35.298Z,65.08
2018-09-20T04:48:03.563Z,64.09
2018-09-20T04:50:31.811Z,65.15
2018-09-20T04:53:00.074Z,64.62
2018-09-20T04:55:28.360Z,63.23
2018-09-20T04:57:56.691Z,63.61
2018-09-20T05:00:24.966Z,62.67
2018-09-20T05:02:53.295Z,62.43
2018-09-20T05:05:21.591Z,63.97
2018-09-20T05:07:49.985Z,64.24
2018-09-20T05:10:18.478Z,62.33
2018-09-20T05:12:47.079Z,62.69
2018-09-20T05:15:15.460Z,64.02
2018-09-20T05:17:44.030Z,65.84
2018-09-20T05:20:12.782Z,65.54
2018-09-20T05:22:41.650Z,63.17
2018-09-20T05:25:10.121Z,62.47
2018-09-20T05:27:39.080Z,62.27
2018-09-20T05:30:07.984Z,64.14
2018-09-20T05:32:36.755Z,63.39
2018-09-20T05:35:05.209Z,65.53
2018-09-20T05:37:34.622Z,63.36
2018-09-20T05:40:03.077Z,61.85
2018-09-20T05:42:31.449Z,62.93
2018-09-20T05:44:59.819Z,62.42
2018-09-20T05:47:28.583Z,62.98
2018-09-20T05:49:57.076Z,63.40
2018-09-20T05:52:25.500Z,64.19
2018-09-20T05:54:53.897Z,62.85
2018-09-20T05:57:22.182Z,62.71
2018-09-20T05:59:50.539Z,61.45
2018-09-20T06:02:18.837Z,62.43
2018-09-20T06:04:47.126Z,62.05
2018-09-20T06:07:15.368Z,61.76
2018-09-20T06:09:43.679Z,61.79
2018-09-20T06:12:11.991Z,61.80
2018-09-20T06:14:40.291Z,61.77
2018-09-20T06:17:08.615Z,60.39
2018-09-20T06:19:37.037Z,60.28
2018-09-20T06:22:05.533Z,60.83
2018-09-20T06:24:33.991Z,59.96
2018-09-20T06:27:02.428Z,57.17
2018-09-20T06:29:30.845Z,52.29
2018-09-20T06:31:59.334Z,50.28
2018-09-20T06:34:27.872Z,47.84
2018-09-20T06:36:56.366Z,45.25
2018-09-20T06:39:24.735Z,43.67
2018-09-20T06:41:53.179Z,41.93
2018-09-20T06:44:21.640Z,40.64
2018-09-20T06:46:50.135Z,40.40
2018-09-20T06:49:18.547Z,41.07
2018-09-20T06:51:46.984Z,41.73
2018-09-20T06:54:15.415Z,40.03
2018-09-20T06:56:43.943Z,38.44
2018-09-20T06:59:12.274Z,36.79
2018-09-20T07:01:40.738Z,37.89
2018-09-20T07:04:09.131Z,38.02
2018-09-20T07:06:37.422Z,39.65
2018-09-20T07:09:08.930Z,40.75
2018-09-20T07:11:37.453Z,42.86
2018-09-20T07:14:05.843Z,41.04
2018-09-20T07:16:34.304Z,38.50
2018-09-20T07:19:03.005Z,38.82
2018-09-20T07:21:31.384Z,38.55
2018-09-20T07:23:59.811Z,38.41
2018-09-20T07:26:29.709Z,36.86
2018-09-20T07:28:58.183Z,36.18
2018-09-20T07:31:26.601Z,35.66
2018-09-20T07:33:55.029Z,35.72
2018-09-20T07:36:23.438Z,34.19
2018-09-20T07:38:51.839Z,34.56
2018-09-20T07:41:20.323Z,35.19
2018-09-20T07:43:48.745Z,32.89
2018-09-20T07:46:17.121Z,31.92
2018-09-20T07:48:45.537Z,31.23
2018-09-20T07:51:13.931Z,30.76
2018-09-20T07:53:42.378Z,31.54
2018-09-20T07:56:10.730Z,34.27
2018-09-20T07:58:39.122Z,34.75
2018-09-20T08:01:07.474Z,38.55
2018-09-20T08:03:35.940Z,42.73
2018-09-20T08:06:04.402Z,43.11
2018-09-20T08:08:32.756Z,42.79
2018-09-20T08:11:01.155Z,42.27
2018-09-20T08:13:29.554Z,42.99
2018-09-20T08:15:57.996Z,38.70
2018-09-20T08:18:26.392Z,35.63
2018-09-20T08:20:54.848Z,35.66
2018-09-20T08:23:23.284Z,33.67
2018-09-20T08:25:51.675Z,33.45
2018-09-20T08:28:20.063Z,33.34
2018-09-20T08:30:48.619Z,32.33
2018-09-20T08:33:17.036Z,31.09
2018-09-20T08:35:45.462Z,31.18
2018-09-20T08:38:13.888Z,32.02
2018-09-20T08:40:42.306Z,32.94
2018-09-20T08:43:10.707Z,31.97
2018-09-20T08:45:39.158Z,31.50
2018-09-20T08:48:07.544Z,30.04
2018-09-20T08:50:35.950Z,30.67
2018-09-20T08:53:04.380Z,30.76
2018-09-20T08:55:32.815Z,30.87
2018-09-20T08:58:01.317Z,30.07
2018-09-20T09:00:29.786Z,31.25
2018-09-20T09:02:58.296Z,30.25
2018-09-20T09:05:26.720Z,29.63
2018-09-20T09:07:55.102Z,30.30
2018-09-20T09:10:23.491Z,28.45
2018-09-20T09:12:51.924Z,28.83
2018-09-20T09:15:20.309Z,29.30
2018-09-20T09:17:48.715Z,29.27
2018-09-20T09:20:17.205Z,27.79
2018-09-20T09:22:45.606Z,27.69
2018-09-20T09:25:14.013Z,29.30
2018-09-20T09:27:42.394Z,29.12
2018-09-20T09:30:11.145Z,29.87
2018-09-20T09:32:39.458Z,28.72
2018-09-20T09:35:07.880Z,28.61
2018-09-20T09:37:36.247Z,28.76
2018-09-20T09:40:04.676Z,28.53
2018-09-20T09:42:33.039Z,29.31
2018-09-20T09:45:01.431Z,28.69
2018-09-20T09:47:29.898Z,30.00
2018-09-20T09:49:58.284Z,30.37
2018-09-20T09:52:26.684Z,30.39
2018-09-20T09:54:55.120Z,31.08
2018-09-20T09:57:23.568Z,29.94
2018-09-20T09:59:52.017Z,28.93
2018-09-20T10:02:20.506Z,30.06
2018-09-20T10:04:48.879Z,29.92
2018-09-20T10:07:17.479Z,29.57
2018-09-20T10:09:45.915Z,28.43
2018-09-20T10:12:14.377Z,28.90
2018-09-20T10:14:42.750Z,27.27
2018-09-20T10:17:11.087Z,28.71
2018-09-20T10:19:39.464Z,29.37
2018-09-20T10:22:07.821Z,30.11
2018-09-20T10:24:36.273Z,29.24
2018-09-20T10:27:04.676Z,31.00
2018-09-20T10:29:33.096Z,30.50
2018-09-20T10:32:01.511Z,28.72
2018-09-20T10:34:29.934Z,30.19
2018-09-20T10:36:58.331Z,30.59
2018-09-20T10:39:26.876Z,29.29
2018-09-20T10:41:55.315Z,27.13
2018-09-20T10:44:23.799Z,28.77
2018-09-20T10:46:52.214Z,27.63
2018-09-20T10:49:20.632Z,28.23
2018-09-20T10:51:49.133Z,29.04
2018-09-20T10:54:17.585Z,27.90
2018-09-20T10:56:45.973Z,26.72
2018-09-20T10:59:14.389Z,25.30
2018-09-20T11:01:42.790Z,28.27
2018-09-20T11:04:11.190Z,27.56
2018-09-20T11:06:39.612Z,27.87
2018-09-20T11:09:08.812Z,26.64
2018-09-20T11:11:37.222Z,27.71
2018-09-20T11:14:05.652Z,28.75
2018-09-20T11:16:34.143Z,28.00
2018-09-20T11:19:02.578Z,27.86
2018-09-20T11:21:31.111Z,29.17
2018-09-20T11:23:59.554Z,29.30
2018-09-20T11:26:27.943Z,27.49
2018-09-20T11:28:56.389Z,27.20
2018-09-20T11:31:24.863Z,27.75
2018-09-20T11:33:53.276Z,26.72
2018-09-20T11:36:21.943Z,26.07
2018-09-20T11:38:50.310Z,25.43
2018-09-20T11:41:18.723Z,26.27
2018-09-20T11:43:47.126Z,26.81
2018-09-20T11:46:15.523Z,28.75
2018-09-20T11:48:43.939Z,29.34
2018-09-20T11:51:12.299Z,29.23
2018-09-20T11:53:40.734Z,29.83
2018-09-20T11:56:09.114Z,30.14
2018-09-20T11:58:37.523Z,29.96
2018-09-20T12:01:05.963Z,28.86
2018-09-20T12:03:34.379Z,29.35
2018-09-20T12:06:02.803Z,27.69
2018-09-20T12:08:31.210Z,28.93
2018-09-20T12:10:59.619Z,27.92
2018-09-20T12:13:28.028Z,26.92
2018-09-20T12:15:56.423Z,28.18
2018-09-20T12:18:24.851Z,28.47
2018-09-20T12:20:53.299Z,29.21
2018-09-20T12:23:21.738Z,30.08
2018-09-20T12:25:50.287Z,30.80
2018-09-20T12:28:18.636Z,30.79
2018-09-20T12:30:47.006Z,30.43
2018-09-20T12:33:15.347Z,30.26
2018-09-20T12:35:43.977Z,30.71
2018-09-20T12:38:12.216Z,30.49
2018-09-20T12:40:40.559Z,31.80
2018-09-20T12:43:09.011Z,32.40
2018-09-20T12:45:37.402Z,31.68
2018-09-20T12:48:05.831Z,32.20
2018-09-20T12:50:34.281Z,32.93
2018-09-20T12:53:02.546Z,33.22
2018-09-20T12:55:30.948Z,31.69
2018-09-20T12:57:59.330Z,31.37
2018-09-20T13:00:27.736Z,30.33
2018-09-20T13:02:56.112Z,31.34
2018-09-20T13:05:24.494Z,30.98
2018-09-20T13:07:52.898Z,31.00
2018-09-20T13:10:21.268Z,30.66
2018-09-20T13:12:49.658Z,31.54
2018-09-20T13:15:18.016Z,31.91
2018-09-20T13:17:46.388Z,32.52
2018-09-20T13:20:14.828Z,32.73
2018-09-20T13:22:43.169Z,30.89
2018-09-20T13:25:11.628Z,32.25
2018-09-20T13:27:40.012Z,31.63
2018-09-20T13:30:08.608Z,32.11
2018-09-20T13:32:37.133Z,31.90
2018-09-20T13:35:05.676Z,32.17
2018-09-20T13:40:18.547Z,31.69
2018-09-20T13:42:47.869Z,31.94
2018-09-20T13:45:16.181Z,32.86
2018-09-20T13:47:44.619Z,32.57
2018-09-20T13:50:13.046Z,33.71
2018-09-20T13:52:41.544Z,34.47
2018-09-20T13:55:10.054Z,33.35
2018-09-20T13:57:38.494Z,33.02
2018-09-20T14:00:09.356Z,31.99
2018-09-20T14:02:38.059Z,32.98
2018-09-20T14:05:08.576Z,33.72
2018-09-20T14:07:37.214Z,31.54
2018-09-20T14:10:06.669Z,31.63
2018-09-20T14:12:35.176Z,31.06
2018-09-20T14:15:03.628Z,32.12
2018-09-20T14:17:32.127Z,32.67
2018-09-20T14:20:01.551Z,31.75
2018-09-20T14:22:30.004Z,31.52
2018-09-20T14:24:58.474Z,32.10
2018-09-20T14:27:26.884Z,33.14
2018-09-20T14:29:55.455Z,32.84
2018-09-20T14:32:23.929Z,33.18
2018-09-20T14:34:53.443Z,32.42
2018-09-20T14:37:21.963Z,32.82
2018-09-20T14:39:50.387Z,32.62
2018-09-20T14:42:18.910Z,33.57
2018-09-20T14:44:47.571Z,33.41
2018-09-20T14:47:19.590Z,32.38
2018-09-20T14:49:48.123Z,31.37
2018-09-20T14:52:16.632Z,33.03
2018-09-20T14:54:45.153Z,34.36
2018-09-20T14:57:13.630Z,32.79
2018-09-20T14:59:42.062Z,31.66
2018-09-20T15:02:10.480Z,33.13
2018-09-20T15:04:38.883Z,34.58
2018-09-20T15:07:07.340Z,31.97
2018-09-20T15:09:35.829Z,33.58
2018-09-20T15:12:05.292Z,33.30
2018-09-20T15:14:34.719Z,32.34
2018-09-20T15:17:09.831Z,32.32
2018-09-20T15:19:38.200Z,32.81
2018-09-20T15:22:06.835Z,32.61
2018-09-20T15:24:35.350Z,33.05
2018-09-20T15:27:04.603Z,31.11
2018-09-20T15:29:32.958Z,32.90
2018-09-20T15:32:01.361Z,32.97
2018-09-20T15:34:29.779Z,32.73
2018-09-20T15:36:58.153Z,32.60
2018-09-20T15:39:28.547Z,32.10
2018-09-20T15:41:56.988Z,32.38
2018-09-20T15:44:25.510Z,33.91
2018-09-20T15:46:53.923Z,33.11
2018-09-20T15:49:22.383Z,33.40
2018-09-20T15:51:51.008Z,32.76
2018-09-20T15:54:19.392Z,32.31
2018-09-20T15:56:47.677Z,32.91
2018-09-20T15:59:15.981Z,33.48
2018-09-20T16:01:44.431Z,32.66
2018-09-20T16:04:12.962Z,32.40
2018-09-20T16:06:41.543Z,33.92
2018-09-20T16:09:11.408Z,33.06
2018-09-20T16:11:40.016Z,32.14
2018-09-20T16:14:08.666Z,32.71
2018-09-20T16:16:37.071Z,33.02
2018-09-20T16:19:06.444Z,32.70
2018-09-20T16:21:34.878Z,33.29
2018-09-20T16:24:03.251Z,32.33
2018-09-20T16:26:31.642Z,32.43
2018-09-20T16:29:12.927Z,33.87
2018-09-20T16:33:56.512Z,33.95
2018-09-20T16:36:32.551Z,33.34
2018-09-20T16:39:08.007Z,32.53
2018-09-20T16:41:39.371Z,32.46
2018-09-20T16:44:07.846Z,33.00
2018-09-20T16:46:36.230Z,33.65
2018-09-20T16:49:04.725Z,33.77
2018-09-20T16:51:34.193Z,33.86
2018-09-20T16:54:03.653Z,33.43
2018-09-20T16:56:32.102Z,33.52
2018-09-20T16:59:00.553Z,32.44
2018-09-20T17:01:28.972Z,33.49
2018-09-20T17:03:57.450Z,33.51
2018-09-20T17:06:25.915Z,33.42
2018-09-20T17:08:54.379Z,34.35
2018-09-20T17:11:22.876Z,34.35
2018-09-20T17:13:51.315Z,33.56
2018-09-20T17:16:29.863Z,34.12
2018-09-20T17:18:58.255Z,35.60
2018-09-20T17:21:26.690Z,35.25
2018-09-20T17:23:55.122Z,35.51
2018-09-20T17:26:23.550Z,36.49
2018-09-20T17:28:51.958Z,37.39
2018-09-20T17:31:20.483Z,38.04
2018-09-20T17:33:48.919Z,37.92
2018-09-20T17:36:17.486Z,39.97
2018-09-20T17:38:47.302Z,38.89
2018-09-20T17:41:19.439Z,41.36
2018-09-20T17:43:50.102Z,40.68
2018-09-20T17:46:18.553Z,40.30
2018-09-20T17:48:46.931Z,41.58
2018-09-20T17:51:16.307Z,40.07
2018-09-20T17:53:45.183Z,41.06
2018-09-20T17:56:13.977Z,41.92
2018-09-20T17:58:43.058Z,41.04
2018-09-20T18:01:11.523Z,40.89
2018-09-20T18:03:40.000Z,40.59
2018-09-20T18:06:08.456Z,41.02
2018-09-20T18:08:36.939Z,42.68
2018-09-20T18:11:05.364Z,41.29
2018-09-20T18:13:33.903Z,41.47
2018-09-20T18:16:02.342Z,39.62
2018-09-20T18:18:30.838Z,39.73
2018-09-20T18:20:59.284Z,38.89
2018-09-20T18:23:27.627Z,38.26
2018-09-20T18:25:56.037Z,37.37
2018-09-20T18:28:24.963Z,36.91
2018-09-20T18:30:54.028Z,35.65
2018-09-20T18:33:22.640Z,35.34
2018-09-20T18:35:57.697Z,35.65
2018-09-20T18:38:26.160Z,33.99
2018-09-20T18:40:54.594Z,33.54
2018-09-20T18:43:23.024Z,33.08
2018-09-20T18:45:51.464Z,33.48
2018-09-20T18:48:19.895Z,33.41
2018-09-20T18:50:48.357Z,33.19
2018-09-20T18:53:16.807Z,33.79
2018-09-20T18:55:45.463Z,33.60
2018-09-20T18:58:13.890Z,33.34
2018-09-20T19:00:42.320Z,32.49
2018-09-20T19:03:10.785Z,33.02
2018-09-20T19:05:39.216Z,32.90
2018-09-20T19:08:07.626Z,33.44
2018-09-20T19:10:36.049Z,32.65
2018-09-20T19:13:04.509Z,33.09
2018-09-20T19:15:32.976Z,33.89
2018-09-20T19:18:01.408Z,33.84
2018-09-20T19:20:29.787Z,34.46
2018-09-20T19:22:58.179Z,34.33
2018-09-20T19:25:26.616Z,34.57
2018-09-20T19:27:55.083Z,33.61
2018-09-20T19:30:23.555Z,34.83
2018-09-20T19:32:51.974Z,33.22
2018-09-20T19:35:20.473Z,33.55
2018-09-20T19:37:48.884Z,34.42
2018-09-20T19:40:17.362Z,35.19
2018-09-20T19:42:45.730Z,34.94
2018-09-20T19:45:14.162Z,34.44
2018-09-20T19:47:42.734Z,34.43
2018-09-20T19:50:11.130Z,34.80
2018-09-20T19:52:39.535Z,35.67
2018-09-20T19:55:07.968Z,35.68
2018-09-20T19:57:36.396Z,36.09
2018-09-20T20:00:04.991Z,35.20
2018-09-20T20:02:33.411Z,35.02
2018-09-20T20:05:01.902Z,35.90
2018-09-20T20:07:30.360Z,36.04
2018-09-20T20:09:58.838Z,35.55
2018-09-20T20:12:27.223Z,35.76
2018-09-20T20:14:55.671Z,36.04
2018-09-20T20:17:24.092Z,37.06
2018-09-20T20:19:52.754Z,37.75
2018-09-20T20:22:21.087Z,36.51
2018-09-20T20:24:49.614Z,38.21
2018-09-20T20:27:18.107Z,37.20
2018-09-20T20:29:46.628Z,36.52
2018-09-20T20:32:15.156Z,37.17
2018-09-20T20:34:43.555Z,38.41
2018-09-20T20:37:11.926Z,38.67
2018-09-20T20:39:40.400Z,37.33
2018-09-20T20:42:08.642Z,38.46
2018-09-20T20:44:37.056Z,37.78
2018-09-20T20:47:05.442Z,37.99
2018-09-20T20:49:33.843Z,38.37
2018-09-20T20:52:02.260Z,38.35
2018-09-20T20:54:30.684Z,39.47
2018-09-20T20:56:59.067Z,38.71
2018-09-20T20:59:27.392Z,40.07
2018-09-20T21:01:55.736Z,39.44
2018-09-20T21:04:24.078Z,40.30
2018-09-20T21:06:52.429Z,39.41
2018-09-20T21:09:20.804Z,40.60
2018-09-20T21:11:49.160Z,40.86
2018-09-20T21:14:17.506Z,40.37
2018-09-20T21:16:45.807Z,40.20
2018-09-20T21:19:14.159Z,39.41
2018-09-20T21:21:42.513Z,39.16
2018-09-20T21:24:10.852Z,40.16
2018-09-20T21:26:39.214Z,40.36
2018-09-20T21:29:07.536Z,39.88
2018-09-20T21:31:35.875Z,39.73
2018-09-20T21:34:04.210Z,40.33
2018-09-20T21:36:32.526Z,40.79
2018-09-20T21:39:00.872Z,40.72
2018-09-20T21:41:29.236Z,40.76
2018-09-20T21:43:57.623Z,41.00
2018-09-20T21:46:25.938Z,42.14
2018-09-20T21:48:54.299Z,41.66
2018-09-20T21:51:22.650Z,41.30
2018-09-20T21:53:51.987Z,41.65
2018-09-20T21:56:20.356Z,42.04
2018-09-20T21:58:48.740Z,42.64
2018-09-20T22:01:17.062Z,41.91
2018-09-20T22:03:45.423Z,43.33
2018-09-20T22:06:13.751Z,43.56
2018-09-20T22:08:42.206Z,42.50
2018-09-20T22:11:10.570Z,43.54
2018-09-20T22:13:38.970Z,43.49
2018-09-20T22:16:07.370Z,43.53
2018-09-20T22:18:35.726Z,44.03
2018-09-20T22:21:04.173Z,44.39
2018-09-20T22:23:32.515Z,43.99
2018-09-20T22:26:00.899Z,44.33
2018-09-20T22:28:29.320Z,45.21
2018-09-20T22:30:57.725Z,45.00
2018-09-20T22:33:26.094Z,45.45
2018-09-20T22:35:54.481Z,45.07
2018-09-20T22:38:22.891Z,44.37
2018-09-20T22:40:51.316Z,45.05
2018-09-20T22:43:19.606Z,44.80
2018-09-20T22:45:48.056Z,45.21
2018-09-20T22:48:16.432Z,44.35
2018-09-20T22:50:44.828Z,44.46
2018-09-20T22:53:13.207Z,44.78
2018-09-20T22:55:41.639Z,45.94
2018-09-20T22:58:10.009Z,45.36
2018-09-20T23:00:38.428Z,43.95
2018-09-20T23:03:06.870Z,46.00
2018-09-20T23:05:35.263Z,44.59
2018-09-20T23:08:03.612Z,44.75
2018-09-20T23:10:31.934Z,45.57
2018-09-20T23:13:00.349Z,44.73
2018-09-20T23:15:28.747Z,44.99
2018-09-20T23:17:57.088Z,45.21
2018-09-20T23:20:25.490Z,46.41
2018-09-20T23:22:53.873Z,44.38
2018-09-20T23:25:22.228Z,45.83
2018-09-20T23:27:50.612Z,45.09
2018-09-20T23:30:19.190Z,45.63
2018-09-20T23:32:47.494Z,46.14
2018-09-20T23:35:15.852Z,45.54
2018-09-20T23:37:44.296Z,46.71
2018-09-20T23:40:12.724Z,46.15
2018-09-20T23:42:41.356Z,46.76
2018-09-20T23:45:09.666Z,46.74
2018-09-20T23:47:38.110Z,45.60
2018-09-20T23:50:06.419Z,47.36
2018-09-20T23:52:34.694Z,47.75
2018-09-20T23:55:03.018Z,47.71
2018-09-20T23:57:31.347Z,47.42
2018-09-20T23:59:59.670Z,48.33
